sensor_id;sensor_type;location;lat;lon;timestamp;P1;durP1;ratioP1;P2;durP2;ratioP2
23573;SDS011;11965;53.640;10.050;2022-12-07T00:00:55;18.08;;;18.06;;
23573;SDS011;11965;53.640;10.050;2022-12-07T00:03:31;17.68;;;17.38;;
23573;SDS011;11965;53.640;10.050;2022-12-07T00:05:58;18.17;;;17.88;;
23573;SDS011;11965;53.640;10.050;2022-12-07T00:08:26;17.90;;;17.69;;
23573;SDS011;11965;53.640;10.050;2022-12-07T00:10:53;17.96;;;17.41;;
23573;SDS011;11965;53.640;10.050;2022-12-07T00:13:20;18.75;;;18.36;;
23573;SDS011;11965;53.640;10.050;2022-12-07T00:15:49;22.64;;;22.53;;
23573;SDS011;11965;53.640;10.050;2022-12-07T00:18:16;23.51;;;23.23;;
23573;SDS011;11965;53.640;10.050;2022-12-07T00:20:43;20.57;;;20.41;;
23573;SDS011;11965;53.640;10.050;2022-12-07T00:23:10;20.67;;;20.29;;
23573;SDS011;11965;53.640;10.050;2022-12-07T00:25:37;19.89;;;19.82;;
23573;SDS011;11965;53.640;10.050;2022-12-07T00:28:04;20.19;;;20.13;;
23573;SDS011;11965;53.640;10.050;2022-12-07T00:30:33;20.36;;;20.17;;
23573;SDS011;11965;53.640;10.050;2022-12-07T00:33:01;19.97;;;19.82;;
23573;SDS011;11965;53.640;10.050;2022-12-07T00:35:28;20.53;;;20.45;;
23573;SDS011;11965;53.640;10.050;2022-12-07T00:37:55;21.35;;;21.35;;
23573;SDS011;11965;53.640;10.050;2022-12-07T00:40:22;21.08;;;20.98;;
23573;SDS011;11965;53.640;10.050;2022-12-07T00:42:51;20.95;;;20.65;;
23573;SDS011;11965;53.640;10.050;2022-12-07T00:45:18;20.15;;;20.00;;
23573;SDS011;11965;53.640;10.050;2022-12-07T00:47:45;20.24;;;20.24;;
23573;SDS011;11965;53.640;10.050;2022-12-07T00:50:14;19.22;;;19.22;;
23573;SDS011;11965;53.640;10.050;2022-12-07T00:52:41;19.11;;;19.00;;
23573;SDS011;11965;53.640;10.050;2022-12-07T00:55:08;19.22;;;19.20;;
23573;SDS011;11965;53.640;10.050;2022-12-07T00:57:36;17.85;;;17.81;;
23573;SDS011;11965;53.640;10.050;2022-12-07T01:00:04;17.78;;;17.65;;
23573;SDS011;11965;53.640;10.050;2022-12-07T01:02:32;16.99;;;16.99;;
23573;SDS011;11965;53.640;10.050;2022-12-07T01:04:59;16.95;;;16.93;;
23573;SDS011;11965;53.640;10.050;2022-12-07T01:07:28;16.94;;;16.94;;
23573;SDS011;11965;53.640;10.050;2022-12-07T01:09:54;16.78;;;16.67;;
23573;SDS011;11965;53.640;10.050;2022-12-07T01:12:22;16.07;;;15.85;;
23573;SDS011;11965;53.640;10.050;2022-12-07T01:14:49;15.55;;;15.55;;
23573;SDS011;11965;53.640;10.050;2022-12-07T01:17:16;15.53;;;15.53;;
23573;SDS011;11965;53.640;10.050;2022-12-07T01:19:43;15.39;;;15.33;;
23573;SDS011;11965;53.640;10.050;2022-12-07T01:22:10;15.39;;;15.14;;
23573;SDS011;11965;53.640;10.050;2022-12-07T01:24:39;14.72;;;14.37;;
23573;SDS011;11965;53.640;10.050;2022-12-07T01:27:06;14.19;;;13.90;;
23573;SDS011;11965;53.640;10.050;2022-12-07T01:29:33;13.28;;;13.28;;
23573;SDS011;11965;53.640;10.050;2022-12-07T01:32:00;13.35;;;13.16;;
23573;SDS011;11965;53.640;10.050;2022-12-07T01:34:27;12.62;;;12.50;;
23573;SDS011;11965;53.640;10.050;2022-12-07T01:36:54;12.88;;;12.77;;
23573;SDS011;11965;53.640;10.050;2022-12-07T01:39:22;12.40;;;12.28;;
23573;SDS011;11965;53.640;10.050;2022-12-07T01:41:50;12.16;;;12.11;;
23573;SDS011;11965;53.640;10.050;2022-12-07T01:44:18;11.81;;;11.80;;
23573;SDS011;11965;53.640;10.050;2022-12-07T01:46:48;11.51;;;11.51;;
23573;SDS011;11965;53.640;10.050;2022-12-07T01:49:19;10.61;;;10.61;;
23573;SDS011;11965;53.640;10.050;2022-12-07T01:51:54;11.40;;;11.40;;
23573;SDS011;11965;53.640;10.050;2022-12-07T01:54:27;10.64;;;10.62;;
23573;SDS011;11965;53.640;10.050;2022-12-07T01:56:56;11.48;;;11.42;;
23573;SDS011;11965;53.640;10.050;2022-12-07T01:59:25;11.00;;;11.00;;
23573;SDS011;11965;53.640;10.050;2022-12-07T02:01:53;10.91;;;10.89;;
23573;SDS011;11965;53.640;10.050;2022-12-07T02:04:22;10.95;;;10.88;;
23573;SDS011;11965;53.640;10.050;2022-12-07T02:06:51;10.82;;;10.81;;
23573;SDS011;11965;53.640;10.050;2022-12-07T02:09:20;11.08;;;11.04;;
23573;SDS011;11965;53.640;10.050;2022-12-07T02:11:48;10.81;;;10.73;;
23573;SDS011;11965;53.640;10.050;2022-12-07T02:14:18;10.84;;;10.73;;
23573;SDS011;11965;53.640;10.050;2022-12-07T02:16:52;10.91;;;10.68;;
23573;SDS011;11965;53.640;10.050;2022-12-07T02:22:54;10.47;;;10.32;;
23573;SDS011;11965;53.640;10.050;2022-12-07T02:26:00;10.21;;;10.09;;
23573;SDS011;11965;53.640;10.050;2022-12-07T02:29:11;10.10;;;9.97;;
23573;SDS011;11965;53.640;10.050;2022-12-07T02:31:51;9.50;;;9.47;;
23573;SDS011;11965;53.640;10.050;2022-12-07T02:34:29;9.14;;;9.05;;
23573;SDS011;11965;53.640;10.050;2022-12-07T02:37:07;8.46;;;8.33;;
23573;SDS011;11965;53.640;10.050;2022-12-07T02:39:44;7.74;;;7.73;;
23573;SDS011;11965;53.640;10.050;2022-12-07T02:42:19;7.15;;;7.15;;
23573;SDS011;11965;53.640;10.050;2022-12-07T02:44:55;6.81;;;6.81;;
23573;SDS011;11965;53.640;10.050;2022-12-07T02:47:23;6.85;;;6.85;;
23573;SDS011;11965;53.640;10.050;2022-12-07T02:49:53;6.51;;;6.51;;
23573;SDS011;11965;53.640;10.050;2022-12-07T02:52:20;6.39;;;6.39;;
23573;SDS011;11965;53.640;10.050;2022-12-07T02:54:47;6.21;;;6.21;;
23573;SDS011;11965;53.640;10.050;2022-12-07T02:57:21;5.82;;;5.82;;
23573;SDS011;11965;53.640;10.050;2022-12-07T03:00:07;5.99;;;5.92;;
23573;SDS011;11965;53.640;10.050;2022-12-07T03:02:44;5.41;;;5.40;;
23573;SDS011;11965;53.640;10.050;2022-12-07T03:05:33;5.17;;;5.17;;
23573;SDS011;11965;53.640;10.050;2022-12-07T03:08:23;5.09;;;5.05;;
23573;SDS011;11965;53.640;10.050;2022-12-07T03:11:00;5.15;;;5.12;;
23573;SDS011;11965;53.640;10.050;2022-12-07T03:13:33;4.79;;;4.78;;
23573;SDS011;11965;53.640;10.050;2022-12-07T03:16:10;4.26;;;4.22;;
23573;SDS011;11965;53.640;10.050;2022-12-07T03:18:43;4.34;;;4.30;;
23573;SDS011;11965;53.640;10.050;2022-12-07T03:21:17;3.82;;;3.82;;
23573;SDS011;11965;53.640;10.050;2022-12-07T03:23:50;3.69;;;3.68;;
23573;SDS011;11965;53.640;10.050;2022-12-07T03:26:22;3.30;;;3.30;;
23573;SDS011;11965;53.640;10.050;2022-12-07T03:28:58;3.20;;;3.20;;
23573;SDS011;11965;53.640;10.050;2022-12-07T03:31:33;3.02;;;3.01;;
23573;SDS011;11965;53.640;10.050;2022-12-07T03:34:06;2.78;;;2.77;;
23573;SDS011;11965;53.640;10.050;2022-12-07T03:36:42;2.95;;;2.94;;
23573;SDS011;11965;53.640;10.050;2022-12-07T03:39:19;2.68;;;2.66;;
23573;SDS011;11965;53.640;10.050;2022-12-07T03:41:53;2.59;;;2.58;;
23573;SDS011;11965;53.640;10.050;2022-12-07T03:44:22;2.45;;;2.43;;
23573;SDS011;11965;53.640;10.050;2022-12-07T03:46:55;2.42;;;2.40;;
23573;SDS011;11965;53.640;10.050;2022-12-07T03:49:30;2.16;;;2.16;;
23573;SDS011;11965;53.640;10.050;2022-12-07T03:52:07;2.18;;;2.18;;
23573;SDS011;11965;53.640;10.050;2022-12-07T03:54:43;2.07;;;2.07;;
23573;SDS011;11965;53.640;10.050;2022-12-07T03:57:18;2.11;;;2.10;;
23573;SDS011;11965;53.640;10.050;2022-12-07T03:59:50;2.31;;;2.31;;
23573;SDS011;11965;53.640;10.050;2022-12-07T04:02:22;2.17;;;2.17;;
23573;SDS011;11965;53.640;10.050;2022-12-07T04:04:51;2.05;;;2.05;;
23573;SDS011;11965;53.640;10.050;2022-12-07T04:07:19;1.93;;;1.92;;
23573;SDS011;11965;53.640;10.050;2022-12-07T04:09:46;2.33;;;2.33;;
23573;SDS011;11965;53.640;10.050;2022-12-07T04:12:14;2.17;;;2.17;;
23573;SDS011;11965;53.640;10.050;2022-12-07T04:14:41;2.32;;;2.32;;
23573;SDS011;11965;53.640;10.050;2022-12-07T04:17:08;2.50;;;2.50;;
23573;SDS011;11965;53.640;10.050;2022-12-07T04:19:37;2.15;;;2.15;;
23573;SDS011;11965;53.640;10.050;2022-12-07T04:22:05;2.34;;;2.34;;
23573;SDS011;11965;53.640;10.050;2022-12-07T04:24:33;2.30;;;2.30;;
23573;SDS011;11965;53.640;10.050;2022-12-07T04:27:01;2.52;;;2.52;;
23573;SDS011;11965;53.640;10.050;2022-12-07T04:29:28;2.55;;;2.55;;
23573;SDS011;11965;53.640;10.050;2022-12-07T04:31:55;2.63;;;2.63;;
23573;SDS011;11965;53.640;10.050;2022-12-07T04:34:22;2.90;;;2.90;;
23573;SDS011;11965;53.640;10.050;2022-12-07T04:36:51;2.70;;;2.70;;
23573;SDS011;11965;53.640;10.050;2022-12-07T04:39:20;3.03;;;3.02;;
23573;SDS011;11965;53.640;10.050;2022-12-07T04:41:49;3.03;;;3.03;;
23573;SDS011;11965;53.640;10.050;2022-12-07T04:44:16;2.69;;;2.69;;
23573;SDS011;11965;53.640;10.050;2022-12-07T04:46:45;2.94;;;2.94;;
23573;SDS011;11965;53.640;10.050;2022-12-07T04:49:13;3.04;;;3.04;;
23573;SDS011;11965;53.640;10.050;2022-12-07T04:51:43;3.15;;;3.13;;
23573;SDS011;11965;53.640;10.050;2022-12-07T04:54:12;3.34;;;3.33;;
23573;SDS011;11965;53.640;10.050;2022-12-07T04:56:41;3.06;;;3.05;;
23573;SDS011;11965;53.640;10.050;2022-12-07T04:59:09;3.07;;;3.07;;
23573;SDS011;11965;53.640;10.050;2022-12-07T05:01:38;2.86;;;2.86;;
23573;SDS011;11965;53.640;10.050;2022-12-07T05:04:06;2.85;;;2.85;;
23573;SDS011;11965;53.640;10.050;2022-12-07T05:06:33;3.07;;;3.07;;
23573;SDS011;11965;53.640;10.050;2022-12-07T05:09:00;3.31;;;3.31;;
23573;SDS011;11965;53.640;10.050;2022-12-07T05:11:30;3.47;;;3.47;;
23573;SDS011;11965;53.640;10.050;2022-12-07T05:14:07;3.36;;;3.35;;
23573;SDS011;11965;53.640;10.050;2022-12-07T05:16:38;3.61;;;3.61;;
23573;SDS011;11965;53.640;10.050;2022-12-07T05:19:06;3.73;;;3.73;;
23573;SDS011;11965;53.640;10.050;2022-12-07T05:21:35;3.38;;;3.38;;
23573;SDS011;11965;53.640;10.050;2022-12-07T05:24:03;3.59;;;3.57;;
23573;SDS011;11965;53.640;10.050;2022-12-07T05:26:33;3.57;;;3.57;;
23573;SDS011;11965;53.640;10.050;2022-12-07T05:29:01;3.63;;;3.61;;
23573;SDS011;11965;53.640;10.050;2022-12-07T05:31:28;3.82;;;3.82;;
23573;SDS011;11965;53.640;10.050;2022-12-07T05:33:55;3.90;;;3.90;;
23573;SDS011;11965;53.640;10.050;2022-12-07T05:36:22;3.89;;;3.85;;
23573;SDS011;11965;53.640;10.050;2022-12-07T05:38:50;4.34;;;4.32;;
23573;SDS011;11965;53.640;10.050;2022-12-07T05:41:18;4.11;;;4.11;;
23573;SDS011;11965;53.640;10.050;2022-12-07T05:44:04;4.34;;;4.30;;
23573;SDS011;11965;53.640;10.050;2022-12-07T05:46:32;4.42;;;4.37;;
23573;SDS011;11965;53.640;10.050;2022-12-07T05:49:00;4.43;;;4.43;;
23573;SDS011;11965;53.640;10.050;2022-12-07T05:51:28;4.29;;;4.29;;
23573;SDS011;11965;53.640;10.050;2022-12-07T05:53:55;4.19;;;4.17;;
23573;SDS011;11965;53.640;10.050;2022-12-07T05:56:22;4.62;;;4.55;;
23573;SDS011;11965;53.640;10.050;2022-12-07T05:58:50;4.65;;;4.62;;
23573;SDS011;11965;53.640;10.050;2022-12-07T06:01:35;4.40;;;4.40;;
23573;SDS011;11965;53.640;10.050;2022-12-07T06:04:03;4.60;;;4.60;;
23573;SDS011;11965;53.640;10.050;2022-12-07T06:06:30;4.27;;;4.26;;
23573;SDS011;11965;53.640;10.050;2022-12-07T06:08:57;4.22;;;4.22;;
23573;SDS011;11965;53.640;10.050;2022-12-07T06:11:24;4.45;;;4.44;;
23573;SDS011;11965;53.640;10.050;2022-12-07T06:14:09;4.66;;;4.65;;
23573;SDS011;11965;53.640;10.050;2022-12-07T06:16:37;4.35;;;4.35;;
23573;SDS011;11965;53.640;10.050;2022-12-07T06:19:04;4.67;;;4.67;;
23573;SDS011;11965;53.640;10.050;2022-12-07T06:21:31;4.56;;;4.55;;
23573;SDS011;11965;53.640;10.050;2022-12-07T06:23:58;4.74;;;4.74;;
23573;SDS011;11965;53.640;10.050;2022-12-07T06:26:26;4.81;;;4.81;;
23573;SDS011;11965;53.640;10.050;2022-12-07T06:28:53;4.80;;;4.80;;
23573;SDS011;11965;53.640;10.050;2022-12-07T06:31:20;4.91;;;4.91;;
23573;SDS011;11965;53.640;10.050;2022-12-07T06:33:49;5.00;;;5.00;;
23573;SDS011;11965;53.640;10.050;2022-12-07T06:36:16;4.99;;;4.99;;
23573;SDS011;11965;53.640;10.050;2022-12-07T06:38:43;5.08;;;5.08;;
23573;SDS011;11965;53.640;10.050;2022-12-07T06:41:10;4.87;;;4.86;;
23573;SDS011;11965;53.640;10.050;2022-12-07T06:43:37;4.89;;;4.88;;
23573;SDS011;11965;53.640;10.050;2022-12-07T06:46:04;4.93;;;4.87;;
23573;SDS011;11965;53.640;10.050;2022-12-07T06:48:31;4.95;;;4.91;;
23573;SDS011;11965;53.640;10.050;2022-12-07T06:50:59;5.28;;;5.27;;
23573;SDS011;11965;53.640;10.050;2022-12-07T06:53:27;5.11;;;5.11;;
23573;SDS011;11965;53.640;10.050;2022-12-07T06:55:54;4.86;;;4.86;;
23573;SDS011;11965;53.640;10.050;2022-12-07T06:58:21;4.82;;;4.82;;
23573;SDS011;11965;53.640;10.050;2022-12-07T07:00:48;4.64;;;4.62;;
23573;SDS011;11965;53.640;10.050;2022-12-07T07:03:16;5.21;;;5.19;;
23573;SDS011;11965;53.640;10.050;2022-12-07T07:05:44;4.76;;;4.75;;
23573;SDS011;11965;53.640;10.050;2022-12-07T07:08:13;5.17;;;5.15;;
23573;SDS011;11965;53.640;10.050;2022-12-07T07:10:40;4.81;;;4.81;;
23573;SDS011;11965;53.640;10.050;2022-12-07T07:13:08;5.09;;;5.09;;
23573;SDS011;11965;53.640;10.050;2022-12-07T07:15:37;4.99;;;4.98;;
23573;SDS011;11965;53.640;10.050;2022-12-07T07:18:06;5.02;;;4.96;;
23573;SDS011;11965;53.640;10.050;2022-12-07T07:20:33;5.38;;;5.31;;
23573;SDS011;11965;53.640;10.050;2022-12-07T07:23:01;4.75;;;4.75;;
23573;SDS011;11965;53.640;10.050;2022-12-07T07:25:30;4.43;;;4.42;;
23573;SDS011;11965;53.640;10.050;2022-12-07T07:27:58;4.29;;;4.28;;
23573;SDS011;11965;53.640;10.050;2022-12-07T07:30:26;4.27;;;4.24;;
23573;SDS011;11965;53.640;10.050;2022-12-07T07:32:55;4.14;;;4.08;;
23573;SDS011;11965;53.640;10.050;2022-12-07T07:35:23;3.76;;;3.74;;
23573;SDS011;11965;53.640;10.050;2022-12-07T07:37:50;3.99;;;3.99;;
23573;SDS011;11965;53.640;10.050;2022-12-07T07:40:17;3.56;;;3.56;;
23573;SDS011;11965;53.640;10.050;2022-12-07T07:42:48;3.53;;;3.52;;
23573;SDS011;11965;53.640;10.050;2022-12-07T07:45:16;3.44;;;3.43;;
23573;SDS011;11965;53.640;10.050;2022-12-07T07:47:43;3.42;;;3.42;;
23573;SDS011;11965;53.640;10.050;2022-12-07T07:50:10;2.97;;;2.97;;
23573;SDS011;11965;53.640;10.050;2022-12-07T07:52:38;2.89;;;2.89;;
23573;SDS011;11965;53.640;10.050;2022-12-07T07:55:05;2.73;;;2.73;;
23573;SDS011;11965;53.640;10.050;2022-12-07T07:57:34;2.69;;;2.68;;
23573;SDS011;11965;53.640;10.050;2022-12-07T08:00:04;2.52;;;2.51;;
23573;SDS011;11965;53.640;10.050;2022-12-07T08:02:37;2.67;;;2.66;;
23573;SDS011;11965;53.640;10.050;2022-12-07T08:05:05;2.75;;;2.75;;
23573;SDS011;11965;53.640;10.050;2022-12-07T08:07:33;2.47;;;2.46;;
23573;SDS011;11965;53.640;10.050;2022-12-07T08:10:00;2.51;;;2.51;;
23573;SDS011;11965;53.640;10.050;2022-12-07T08:12:27;2.33;;;2.33;;
23573;SDS011;11965;53.640;10.050;2022-12-07T08:14:55;2.70;;;2.69;;
23573;SDS011;11965;53.640;10.050;2022-12-07T08:17:23;2.41;;;2.39;;
23573;SDS011;11965;53.640;10.050;2022-12-07T08:19:50;6.36;;;6.35;;
23573;SDS011;11965;53.640;10.050;2022-12-07T08:22:18;3.14;;;3.14;;
23573;SDS011;11965;53.640;10.050;2022-12-07T08:24:45;2.34;;;2.34;;
23573;SDS011;11965;53.640;10.050;2022-12-07T08:27:12;2.24;;;2.23;;
23573;SDS011;11965;53.640;10.050;2022-12-07T08:29:40;2.04;;;2.03;;
23573;SDS011;11965;53.640;10.050;2022-12-07T08:32:07;2.35;;;2.33;;
23573;SDS011;11965;53.640;10.050;2022-12-07T08:34:36;2.65;;;2.62;;
23573;SDS011;11965;53.640;10.050;2022-12-07T08:37:03;2.62;;;2.57;;
23573;SDS011;11965;53.640;10.050;2022-12-07T08:39:30;2.44;;;2.39;;
23573;SDS011;11965;53.640;10.050;2022-12-07T08:41:57;2.60;;;2.54;;
23573;SDS011;11965;53.640;10.050;2022-12-07T08:44:25;2.67;;;2.61;;
23573;SDS011;11965;53.640;10.050;2022-12-07T08:46:53;2.29;;;2.26;;
23573;SDS011;11965;53.640;10.050;2022-12-07T08:49:26;2.30;;;2.27;;
23573;SDS011;11965;53.640;10.050;2022-12-07T08:51:59;2.23;;;2.18;;
23573;SDS011;11965;53.640;10.050;2022-12-07T08:54:28;2.64;;;2.56;;
23573;SDS011;11965;53.640;10.050;2022-12-07T08:56:55;2.74;;;2.62;;
23573;SDS011;11965;53.640;10.050;2022-12-07T08:59:23;2.68;;;2.59;;
23573;SDS011;11965;53.640;10.050;2022-12-07T09:01:51;2.24;;;2.18;;
23573;SDS011;11965;53.640;10.050;2022-12-07T09:04:18;2.38;;;2.32;;
23573;SDS011;11965;53.640;10.050;2022-12-07T09:06:45;2.35;;;2.28;;
23573;SDS011;11965;53.640;10.050;2022-12-07T09:09:14;2.45;;;2.34;;
23573;SDS011;11965;53.640;10.050;2022-12-07T09:11:42;2.27;;;2.15;;
23573;SDS011;11965;53.640;10.050;2022-12-07T09:14:10;2.52;;;2.40;;
23573;SDS011;11965;53.640;10.050;2022-12-07T09:16:38;2.40;;;2.27;;
23573;SDS011;11965;53.640;10.050;2022-12-07T09:19:05;2.41;;;2.31;;
23573;SDS011;11965;53.640;10.050;2022-12-07T09:21:35;2.47;;;2.37;;
23573;SDS011;11965;53.640;10.050;2022-12-07T09:24:03;2.41;;;2.30;;
23573;SDS011;11965;53.640;10.050;2022-12-07T09:26:32;2.37;;;2.28;;
23573;SDS011;11965;53.640;10.050;2022-12-07T09:29:00;2.43;;;2.30;;
23573;SDS011;11965;53.640;10.050;2022-12-07T09:31:28;2.62;;;2.46;;
23573;SDS011;11965;53.640;10.050;2022-12-07T09:33:55;2.97;;;2.75;;
23573;SDS011;11965;53.640;10.050;2022-12-07T09:36:24;2.67;;;2.40;;
23573;SDS011;11965;53.640;10.050;2022-12-07T09:38:51;2.64;;;2.37;;
23573;SDS011;11965;53.640;10.050;2022-12-07T09:41:19;2.52;;;2.31;;
23573;SDS011;11965;53.640;10.050;2022-12-07T09:43:50;2.77;;;2.56;;
23573;SDS011;11965;53.640;10.050;2022-12-07T09:46:20;2.75;;;2.53;;
23573;SDS011;11965;53.640;10.050;2022-12-07T09:48:48;2.66;;;2.45;;
23573;SDS011;11965;53.640;10.050;2022-12-07T09:51:18;2.88;;;2.61;;
23573;SDS011;11965;53.640;10.050;2022-12-07T09:53:47;2.65;;;2.35;;
23573;SDS011;11965;53.640;10.050;2022-12-07T09:56:16;2.27;;;2.05;;
23573;SDS011;11965;53.640;10.050;2022-12-07T09:58:46;2.59;;;2.34;;
23573;SDS011;11965;53.640;10.050;2022-12-07T10:01:17;2.31;;;2.10;;
23573;SDS011;11965;53.640;10.050;2022-12-07T10:03:48;2.50;;;2.26;;
23573;SDS011;11965;53.640;10.050;2022-12-07T10:06:18;2.60;;;2.31;;
23573;SDS011;11965;53.640;10.050;2022-12-07T10:08:46;2.89;;;2.56;;
23573;SDS011;11965;53.640;10.050;2022-12-07T10:11:14;2.65;;;2.39;;
23573;SDS011;11965;53.640;10.050;2022-12-07T10:13:42;2.64;;;2.38;;
23573;SDS011;11965;53.640;10.050;2022-12-07T10:16:35;2.96;;;2.56;;
23573;SDS011;11965;53.640;10.050;2022-12-07T10:19:17;2.77;;;2.38;;
23573;SDS011;11965;53.640;10.050;2022-12-07T10:21:59;2.79;;;2.44;;
23573;SDS011;11965;53.640;10.050;2022-12-07T10:24:29;2.63;;;2.34;;
23573;SDS011;11965;53.640;10.050;2022-12-07T10:26:56;2.95;;;2.58;;
23573;SDS011;11965;53.640;10.050;2022-12-07T10:29:25;2.56;;;2.28;;
23573;SDS011;11965;53.640;10.050;2022-12-07T10:31:58;2.42;;;2.18;;
23573;SDS011;11965;53.640;10.050;2022-12-07T10:34:28;2.69;;;2.43;;
23573;SDS011;11965;53.640;10.050;2022-12-07T10:37:14;2.76;;;2.47;;
23573;SDS011;11965;53.640;10.050;2022-12-07T10:39:44;2.52;;;2.23;;
23573;SDS011;11965;53.640;10.050;2022-12-07T10:42:16;2.73;;;2.36;;
23573;SDS011;11965;53.640;10.050;2022-12-07T10:44:45;2.68;;;2.30;;
23573;SDS011;11965;53.640;10.050;2022-12-07T10:47:27;3.15;;;2.75;;
23573;SDS011;11965;53.640;10.050;2022-12-07T10:52:58;2.57;;;2.20;;
23573;SDS011;11965;53.640;10.050;2022-12-07T10:55:42;2.74;;;2.31;;
23573;SDS011;11965;53.640;10.050;2022-12-07T10:58:37;2.61;;;2.22;;
23573;SDS011;11965;53.640;10.050;2022-12-07T11:01:22;2.89;;;2.47;;
23573;SDS011;11965;53.640;10.050;2022-12-07T11:04:06;2.48;;;2.10;;
23573;SDS011;11965;53.640;10.050;2022-12-07T11:06:51;2.70;;;2.28;;
23573;SDS011;11965;53.640;10.050;2022-12-07T11:09:36;2.88;;;2.45;;
23573;SDS011;11965;53.640;10.050;2022-12-07T11:12:20;2.58;;;2.17;;
23573;SDS011;11965;53.640;10.050;2022-12-07T11:15:04;2.39;;;2.04;;
23573;SDS011;11965;53.640;10.050;2022-12-07T11:17:45;2.61;;;2.19;;
23573;SDS011;11965;53.640;10.050;2022-12-07T11:20:27;2.81;;;2.34;;
23573;SDS011;11965;53.640;10.050;2022-12-07T11:23:09;2.71;;;2.24;;
23573;SDS011;11965;53.640;10.050;2022-12-07T11:25:48;2.64;;;2.22;;
23573;SDS011;11965;53.640;10.050;2022-12-07T11:28:31;2.20;;;1.86;;
23573;SDS011;11965;53.640;10.050;2022-12-07T11:31:16;2.30;;;1.95;;
23573;SDS011;11965;53.640;10.050;2022-12-07T11:33:57;2.50;;;2.08;;
23573;SDS011;11965;53.640;10.050;2022-12-07T11:36:37;2.67;;;2.18;;
23573;SDS011;11965;53.640;10.050;2022-12-07T11:39:10;2.64;;;2.12;;
23573;SDS011;11965;53.640;10.050;2022-12-07T11:41:50;2.88;;;2.27;;
23573;SDS011;11965;53.640;10.050;2022-12-07T11:44:29;2.95;;;2.29;;
23573;SDS011;11965;53.640;10.050;2022-12-07T11:47:06;3.10;;;2.40;;
23573;SDS011;11965;53.640;10.050;2022-12-07T11:49:42;3.16;;;2.42;;
23573;SDS011;11965;53.640;10.050;2022-12-07T11:52:22;3.44;;;2.61;;
23573;SDS011;11965;53.640;10.050;2022-12-07T11:54:56;3.14;;;2.43;;
23573;SDS011;11965;53.640;10.050;2022-12-07T11:57:29;3.23;;;2.59;;
23573;SDS011;11965;53.640;10.050;2022-12-07T12:00:05;2.90;;;2.37;;
23573;SDS011;11965;53.640;10.050;2022-12-07T12:02:43;2.82;;;2.29;;
23573;SDS011;11965;53.640;10.050;2022-12-07T12:05:19;3.11;;;2.49;;
23573;SDS011;11965;53.640;10.050;2022-12-07T12:07:52;3.16;;;2.51;;
23573;SDS011;11965;53.640;10.050;2022-12-07T12:10:33;3.09;;;2.43;;
23573;SDS011;11965;53.640;10.050;2022-12-07T12:13:21;2.92;;;2.28;;
23573;SDS011;11965;53.640;10.050;2022-12-07T12:19:20;3.09;;;2.42;;
23573;SDS011;11965;53.640;10.050;2022-12-07T12:21:57;3.30;;;2.50;;
23573;SDS011;11965;53.640;10.050;2022-12-07T12:24:38;3.60;;;2.70;;
23573;SDS011;11965;53.640;10.050;2022-12-07T12:27:09;3.36;;;2.51;;
23573;SDS011;11965;53.640;10.050;2022-12-07T12:29:51;3.38;;;2.58;;
23573;SDS011;11965;53.640;10.050;2022-12-07T12:32:22;3.20;;;2.43;;
23573;SDS011;11965;53.640;10.050;2022-12-07T12:35:17;3.00;;;2.26;;
23573;SDS011;11965;53.640;10.050;2022-12-07T12:37:53;3.23;;;2.43;;
23573;SDS011;11965;53.640;10.050;2022-12-07T12:49:33;3.53;;;2.71;;
23573;SDS011;11965;53.640;10.050;2022-12-07T12:55:17;3.88;;;3.03;;
23573;SDS011;11965;53.640;10.050;2022-12-07T13:03:56;3.33;;;2.51;;
23573;SDS011;11965;53.640;10.050;2022-12-07T13:06:32;3.94;;;3.03;;
23573;SDS011;11965;53.640;10.050;2022-12-07T13:09:03;3.04;;;2.30;;
23573;SDS011;11965;53.640;10.050;2022-12-07T13:11:46;2.95;;;2.20;;
23573;SDS011;11965;53.640;10.050;2022-12-07T13:20:44;2.98;;;2.32;;
23573;SDS011;11965;53.640;10.050;2022-12-07T13:23:16;3.37;;;2.71;;
23573;SDS011;11965;53.640;10.050;2022-12-07T13:25:51;3.08;;;2.54;;
23573;SDS011;11965;53.640;10.050;2022-12-07T13:28:26;2.78;;;2.26;;
23573;SDS011;11965;53.640;10.050;2022-12-07T13:31:14;3.52;;;2.84;;
23573;SDS011;11965;53.640;10.050;2022-12-07T13:33:58;2.94;;;2.30;;
23573;SDS011;11965;53.640;10.050;2022-12-07T13:36:28;3.28;;;2.54;;
23573;SDS011;11965;53.640;10.050;2022-12-07T13:39:10;4.98;;;4.06;;
23573;SDS011;11965;53.640;10.050;2022-12-07T13:41:44;5.03;;;4.27;;
23573;SDS011;11965;53.640;10.050;2022-12-07T13:44:16;3.18;;;2.76;;
23573;SDS011;11965;53.640;10.050;2022-12-07T13:46:52;3.36;;;2.96;;
23573;SDS011;11965;53.640;10.050;2022-12-07T13:49:26;2.25;;;2.00;;
23573;SDS011;11965;53.640;10.050;2022-12-07T13:52:12;2.27;;;2.00;;
23573;SDS011;11965;53.640;10.050;2022-12-07T13:54:47;5.06;;;4.54;;
23573;SDS011;11965;53.640;10.050;2022-12-07T13:57:17;3.19;;;2.92;;
23573;SDS011;11965;53.640;10.050;2022-12-07T13:59:45;4.00;;;3.73;;
23573;SDS011;11965;53.640;10.050;2022-12-07T14:02:19;2.82;;;2.63;;
23573;SDS011;11965;53.640;10.050;2022-12-07T14:04:48;2.39;;;2.21;;
23573;SDS011;11965;53.640;10.050;2022-12-07T14:07:22;3.79;;;3.50;;
23573;SDS011;11965;53.640;10.050;2022-12-07T14:09:56;4.63;;;4.38;;
23573;SDS011;11965;53.640;10.050;2022-12-07T14:12:27;5.42;;;5.24;;
23573;SDS011;11965;53.640;10.050;2022-12-07T14:14:56;3.38;;;3.28;;
23573;SDS011;11965;53.640;10.050;2022-12-07T14:17:25;3.30;;;3.20;;
23573;SDS011;11965;53.640;10.050;2022-12-07T14:19:53;4.92;;;4.76;;
23573;SDS011;11965;53.640;10.050;2022-12-07T14:22:25;4.78;;;4.57;;
23573;SDS011;11965;53.640;10.050;2022-12-07T14:25:01;5.51;;;5.26;;
23573;SDS011;11965;53.640;10.050;2022-12-07T14:27:50;3.27;;;3.07;;
23573;SDS011;11965;53.640;10.050;2022-12-07T14:30:21;3.90;;;3.73;;
23573;SDS011;11965;53.640;10.050;2022-12-07T14:32:51;4.78;;;4.53;;
23573;SDS011;11965;53.640;10.050;2022-12-07T14:35:20;4.82;;;4.62;;
23573;SDS011;11965;53.640;10.050;2022-12-07T14:37:49;4.72;;;4.49;;
23573;SDS011;11965;53.640;10.050;2022-12-07T14:40:17;5.20;;;4.89;;
23573;SDS011;11965;53.640;10.050;2022-12-07T14:42:46;6.72;;;6.39;;
23573;SDS011;11965;53.640;10.050;2022-12-07T14:45:19;4.52;;;4.40;;
23573;SDS011;11965;53.640;10.050;2022-12-07T14:47:48;4.25;;;4.17;;
23573;SDS011;11965;53.640;10.050;2022-12-07T14:50:16;4.81;;;4.73;;
23573;SDS011;11965;53.640;10.050;2022-12-07T14:52:49;4.00;;;3.87;;
23573;SDS011;11965;53.640;10.050;2022-12-07T14:55:23;2.38;;;2.27;;
23573;SDS011;11965;53.640;10.050;2022-12-07T14:57:51;3.34;;;3.12;;
23573;SDS011;11965;53.640;10.050;2022-12-07T15:00:19;4.11;;;3.77;;
23573;SDS011;11965;53.640;10.050;2022-12-07T15:02:47;3.40;;;3.21;;
23573;SDS011;11965;53.640;10.050;2022-12-07T15:05:15;2.69;;;2.54;;
23573;SDS011;11965;53.640;10.050;2022-12-07T15:07:44;2.41;;;2.28;;
23573;SDS011;11965;53.640;10.050;2022-12-07T15:10:15;2.27;;;2.15;;
23573;SDS011;11965;53.640;10.050;2022-12-07T15:12:45;2.56;;;2.41;;
23573;SDS011;11965;53.640;10.050;2022-12-07T15:15:13;2.11;;;1.99;;
23573;SDS011;11965;53.640;10.050;2022-12-07T15:17:40;2.74;;;2.57;;
23573;SDS011;11965;53.640;10.050;2022-12-07T15:20:09;2.77;;;2.61;;
23573;SDS011;11965;53.640;10.050;2022-12-07T15:22:39;3.96;;;3.73;;
23573;SDS011;11965;53.640;10.050;2022-12-07T15:25:07;4.93;;;4.67;;
23573;SDS011;11965;53.640;10.050;2022-12-07T15:27:36;3.63;;;3.47;;
23573;SDS011;11965;53.640;10.050;2022-12-07T15:30:06;2.65;;;2.52;;